createdAt,value
2023-10-29T00:00:07.722Z,1009.07
2023-10-29T00:01:07.806Z,1009.06
2023-10-29T00:02:07.806Z,1009.03
2023-10-29T00:03:07.913Z,1009.02
2023-10-29T00:04:07.763Z,1009.02
2023-10-29T00:05:07.726Z,1008.96
2023-10-29T00:06:07.731Z,1009.01
2023-10-29T00:07:07.733Z,1009
2023-10-29T00:08:07.712Z,1008.95
2023-10-29T00:09:07.711Z,1009.01
2023-10-29T00:10:07.729Z,1008.97
2023-10-29T00:11:07.713Z,1008.98
2023-10-29T00:12:07.712Z,1008.99
2023-10-29T00:13:07.713Z,1008.93
2023-10-29T00:14:07.732Z,1008.92
2023-10-29T00:15:07.820Z,1008.93
2023-10-29T00:16:07.736Z,1008.96
2023-10-29T00:17:07.717Z,1008.99
2023-10-29T00:18:07.809Z,1009
2023-10-29T00:19:07.716Z,1009
2023-10-29T00:20:07.719Z,1009
2023-10-29T00:21:07.732Z,1009
2023-10-29T00:22:07.712Z,1009
2023-10-29T00:23:07.714Z,1009
2023-10-29T00:24:07.718Z,1008.98
2023-10-29T00:25:07.722Z,1009.02
2023-10-29T00:26:07.714Z,1009.02
2023-10-29T00:27:07.712Z,1009
2023-10-29T00:28:07.715Z,1009.03
2023-10-29T00:29:07.711Z,1008.96
2023-10-29T00:30:07.725Z,1009.05
2023-10-29T00:31:07.736Z,1009.05
2023-10-29T00:32:07.716Z,1009.02
2023-10-29T00:33:07.859Z,1009.01
2023-10-29T00:34:07.720Z,1009.02
2023-10-29T00:35:07.728Z,1009.01
2023-10-29T00:36:07.735Z,1008.95
2023-10-29T00:37:07.716Z,1008.99
2023-10-29T00:38:07.728Z,1008.99
2023-10-29T00:39:07.714Z,1008.99
2023-10-29T00:40:07.718Z,1008.97
2023-10-29T00:41:07.721Z,1008.98
2023-10-29T00:42:07.718Z,1008.95
2023-10-29T00:43:07.710Z,1008.94
2023-10-29T00:44:07.715Z,1008.92
2023-10-29T00:45:07.722Z,1008.94
2023-10-29T00:46:07.754Z,1008.93
2023-10-29T00:47:07.727Z,1008.98
2023-10-29T00:48:07.809Z,1009.01
2023-10-29T00:49:07.708Z,1008.98
2023-10-29T00:50:07.722Z,1009.04
2023-10-29T00:51:07.725Z,1009.05
2023-10-29T00:52:07.734Z,1009.03
2023-10-29T00:53:07.716Z,1009.06
2023-10-29T00:54:07.720Z,1009.01
2023-10-29T00:55:07.726Z,1009.01
2023-10-29T00:56:07.750Z,1008.98
2023-10-29T00:57:07.717Z,1008.98
2023-10-29T00:58:07.712Z,1008.98
2023-10-29T00:59:07.737Z,1008.96
2023-10-29T01:00:07.730Z,1008.87
2023-10-29T01:01:07.769Z,1009.11
2023-10-29T01:02:07.713Z,1008.93
2023-10-29T01:03:07.833Z,1008.88
2023-10-29T01:04:07.783Z,1008.99
2023-10-29T01:05:07.733Z,1008.85
2023-10-29T01:06:07.747Z,1008.91
2023-10-29T01:07:07.708Z,1008.92
2023-10-29T01:08:07.712Z,1008.88
2023-10-29T01:09:07.711Z,1008.88
2023-10-29T01:10:07.733Z,1008.94
2023-10-29T01:11:07.717Z,1008.85
2023-10-29T01:12:07.718Z,1008.82
2023-10-29T01:13:07.717Z,1008.85
2023-10-29T01:14:07.716Z,1008.85
2023-10-29T01:15:07.717Z,1008.75
2023-10-29T01:16:07.768Z,1008.76
2023-10-29T01:17:07.711Z,1008.73
2023-10-29T01:18:07.881Z,1008.82
2023-10-29T01:19:07.719Z,1008.7
2023-10-29T01:20:07.730Z,1008.66
2023-10-29T01:21:07.727Z,1008.7
2023-10-29T01:22:07.711Z,1008.65
2023-10-29T01:23:07.715Z,1008.59
2023-10-29T01:24:07.714Z,1008.54
2023-10-29T01:25:07.718Z,1008.55
2023-10-29T01:26:07.714Z,1008.61
2023-10-29T01:27:07.705Z,1008.61
2023-10-29T01:28:07.728Z,1008.63
2023-10-29T01:29:07.715Z,1008.63
2023-10-29T01:30:07.725Z,1008.66
2023-10-29T01:31:07.780Z,1008.68
2023-10-29T01:32:07.714Z,1008.7
2023-10-29T01:33:07.765Z,1008.65
2023-10-29T01:34:07.717Z,1008.68
2023-10-29T01:35:07.847Z,1008.66
2023-10-29T01:36:07.729Z,1008.66
2023-10-29T01:37:07.707Z,1008.7
2023-10-29T01:38:07.716Z,1008.62
2023-10-29T01:39:07.715Z,1008.63
2023-10-29T01:40:07.797Z,1008.6
2023-10-29T01:41:07.719Z,1008.63
2023-10-29T01:42:07.722Z,1008.61
2023-10-29T01:43:07.732Z,1008.55
2023-10-29T01:44:07.708Z,1008.57
2023-10-29T01:45:07.748Z,1008.54
2023-10-29T01:46:07.767Z,1008.57
2023-10-29T01:47:07.722Z,1008.68
2023-10-29T01:48:07.849Z,1008.88
2023-10-29T01:49:07.717Z,1008.55
2023-10-29T01:50:07.724Z,1008.64
2023-10-29T01:51:07.755Z,1008.56
2023-10-29T01:52:07.710Z,1008.55
2023-10-29T01:53:07.712Z,1008.58
2023-10-29T01:54:07.717Z,1008.63
2023-10-29T01:55:07.962Z,1008.58
2023-10-29T01:56:07.715Z,1008.58
2023-10-29T01:57:07.713Z,1008.49
2023-10-29T01:58:07.714Z,1008.74
2023-10-29T01:59:07.722Z,1008.57
2023-10-29T02:00:07.728Z,1008.56
2023-10-29T02:01:07.774Z,1008.7
2023-10-29T02:02:07.718Z,1008.51
2023-10-29T02:03:07.833Z,1008.51
2023-10-29T02:04:07.798Z,1008.58
2023-10-29T02:05:07.734Z,1008.58
2023-10-29T02:06:07.731Z,1008.53
2023-10-29T02:07:07.714Z,1008.53
2023-10-29T02:08:07.714Z,1008.51
2023-10-29T02:09:07.714Z,1008.42
2023-10-29T02:10:07.811Z,1008.53
2023-10-29T02:11:07.706Z,1008.53
2023-10-29T02:12:07.714Z,1008.52
2023-10-29T02:13:07.724Z,1008.66
2023-10-29T02:14:07.796Z,1008.63
2023-10-29T02:15:07.763Z,1008.46
2023-10-29T02:16:07.788Z,1008.47
2023-10-29T02:17:07.714Z,1008.41
2023-10-29T02:18:07.845Z,1008.61
2023-10-29T02:19:07.720Z,1008.54
2023-10-29T02:20:07.725Z,1008.39
2023-10-29T02:21:07.730Z,1008.59
2023-10-29T02:22:07.722Z,1008.52
2023-10-29T02:23:07.716Z,1008.52
2023-10-29T02:24:07.732Z,1008.53
2023-10-29T02:25:07.718Z,1008.57
2023-10-29T02:26:07.736Z,1008.54
2023-10-29T02:27:07.725Z,1008.54
2023-10-29T02:28:07.708Z,1008.58
2023-10-29T02:29:07.715Z,1008.69
2023-10-29T02:30:07.732Z,1008.57
2023-10-29T02:31:07.759Z,1008.52
2023-10-29T02:32:07.713Z,1008.71
2023-10-29T02:33:07.785Z,1008.5
2023-10-29T02:34:07.705Z,1008.6
2023-10-29T02:35:07.740Z,1008.63
2023-10-29T02:36:07.727Z,1008.62
2023-10-29T02:37:07.721Z,1008.55
2023-10-29T02:38:07.710Z,1008.85
2023-10-29T02:39:07.731Z,1008.53
2023-10-29T02:40:07.734Z,1008.53
2023-10-29T02:41:07.719Z,1008.53
2023-10-29T02:42:07.719Z,1008.64
2023-10-29T02:43:07.708Z,1008.55
2023-10-29T02:44:07.715Z,1008.5
2023-10-29T02:45:07.765Z,1008.47
2023-10-29T02:46:07.791Z,1008.49
2023-10-29T02:47:07.714Z,1008.46
2023-10-29T02:48:07.800Z,1008.7
2023-10-29T02:49:07.726Z,1008.61
2023-10-29T02:50:07.730Z,1008.54
2023-10-29T02:51:07.732Z,1008.63
2023-10-29T02:52:07.706Z,1008.57
2023-10-29T02:53:07.721Z,1008.57
2023-10-29T02:54:07.715Z,1008.55
2023-10-29T02:55:07.729Z,1008.73
2023-10-29T02:56:07.708Z,1008.62
2023-10-29T02:57:07.720Z,1008.73
2023-10-29T02:58:07.714Z,1008.68
2023-10-29T02:59:07.711Z,1008.69
2023-10-29T03:00:07.745Z,1008.58
2023-10-29T03:01:07.730Z,1008.59
2023-10-29T03:02:07.718Z,1008.59
2023-10-29T03:03:07.806Z,1008.59
2023-10-29T03:04:07.950Z,1008.57
2023-10-29T03:05:07.730Z,1008.53
2023-10-29T03:06:07.871Z,1008.52
2023-10-29T03:07:07.716Z,1008.59
2023-10-29T03:08:07.722Z,1008.61
2023-10-29T03:09:07.738Z,1008.63
2023-10-29T03:10:07.722Z,1008.54
2023-10-29T03:11:07.711Z,1008.52
2023-10-29T03:12:07.722Z,1008.46
2023-10-29T03:13:07.714Z,1008.48
2023-10-29T03:14:07.717Z,1008.34
2023-10-29T03:15:07.756Z,1008.45
2023-10-29T03:16:07.723Z,1008.47
2023-10-29T03:17:07.707Z,1008.47
2023-10-29T03:18:07.790Z,1008.47
2023-10-29T03:19:07.706Z,1008.49
2023-10-29T03:20:07.731Z,1008.52
2023-10-29T03:21:07.742Z,1008.41
2023-10-29T03:22:07.732Z,1008.6
2023-10-29T03:23:07.712Z,1008.5
2023-10-29T03:24:07.710Z,1008.56
2023-10-29T03:25:07.765Z,1008.45
2023-10-29T03:26:07.699Z,1008.61
2023-10-29T03:27:07.713Z,1008.48
2023-10-29T03:28:07.711Z,1008.62
2023-10-29T03:29:07.716Z,1008.6
2023-10-29T03:30:07.722Z,1008.62
2023-10-29T03:31:07.698Z,1008.68
2023-10-29T03:32:07.750Z,1008.59
2023-10-29T03:33:07.860Z,1008.61
2023-10-29T03:34:07.716Z,1008.51
2023-10-29T03:35:07.729Z,1008.54
2023-10-29T03:36:07.724Z,1008.69
2023-10-29T03:37:07.696Z,1008.59
2023-10-29T03:38:07.717Z,1008.63
2023-10-29T03:39:07.710Z,1008.55
2023-10-29T03:40:07.725Z,1008.58
2023-10-29T03:41:07.721Z,1008.59
2023-10-29T03:42:07.711Z,1008.68
2023-10-29T03:43:07.719Z,1008.55
2023-10-29T03:44:07.720Z,1008.56
2023-10-29T03:45:07.828Z,1008.58
2023-10-29T03:46:07.765Z,1008.66
2023-10-29T03:47:07.733Z,1008.6
2023-10-29T03:48:07.799Z,1008.56
2023-10-29T03:49:07.704Z,1008.59
2023-10-29T03:50:07.718Z,1008.55
2023-10-29T03:51:07.727Z,1008.58
2023-10-29T03:52:07.716Z,1008.58
2023-10-29T03:53:07.711Z,1008.62
2023-10-29T03:54:07.718Z,1008.61
2023-10-29T03:55:07.716Z,1008.91
2023-10-29T03:56:07.706Z,1008.64
2023-10-29T03:57:07.709Z,1008.71
2023-10-29T03:58:07.712Z,1008.72
2023-10-29T03:59:07.722Z,1008.64
2023-10-29T04:00:07.721Z,1008.57
2023-10-29T04:01:07.758Z,1008.59
2023-10-29T04:02:07.709Z,1008.6
2023-10-29T04:03:07.799Z,1008.63
2023-10-29T04:04:07.736Z,1008.57
2023-10-29T04:05:10.102Z,1008.61
2023-10-29T04:06:07.726Z,1008.56
2023-10-29T04:07:07.706Z,1008.74
2023-10-29T04:08:07.712Z,1008.74
2023-10-29T04:09:07.713Z,1008.66
2023-10-29T04:10:07.719Z,1008.52
2023-10-29T04:11:07.715Z,1008.5
2023-10-29T04:12:07.770Z,1008.54
2023-10-29T04:13:07.713Z,1008.54
2023-10-29T04:14:07.710Z,1008.58
2023-10-29T04:15:07.753Z,1008.7
2023-10-29T04:16:07.746Z,1008.5
2023-10-29T04:17:07.710Z,1008.48
2023-10-29T04:18:07.797Z,1008.48
2023-10-29T04:19:07.730Z,1008.36
2023-10-29T04:20:07.766Z,1008.46
2023-10-29T04:21:07.764Z,1008.41
2023-10-29T04:22:07.707Z,1008.38
2023-10-29T04:23:07.713Z,1008.33
2023-10-29T04:24:07.720Z,1008.25
2023-10-29T04:25:07.720Z,1008.23
2023-10-29T04:26:07.712Z,1008.24
2023-10-29T04:27:07.715Z,1008.24
2023-10-29T04:28:07.706Z,1008.2
2023-10-29T04:29:07.722Z,1008.17
2023-10-29T04:30:07.788Z,1008.23
2023-10-29T04:31:07.795Z,1008.25
2023-10-29T04:32:07.714Z,1008.26
2023-10-29T04:33:07.802Z,1008.19
2023-10-29T04:34:07.709Z,1008.24
2023-10-29T04:35:07.720Z,1008.24
2023-10-29T04:36:07.720Z,1008.24
2023-10-29T04:37:07.716Z,1008.19
2023-10-29T04:38:07.707Z,1008.29
2023-10-29T04:39:07.710Z,1008.15
2023-10-29T04:40:07.721Z,1008.11
2023-10-29T04:41:07.720Z,1008.17
2023-10-29T04:42:07.720Z,1008.07
2023-10-29T04:43:07.708Z,1007.98
2023-10-29T04:44:07.715Z,1008.18
2023-10-29T04:45:07.760Z,1008.04
2023-10-29T04:46:07.746Z,1008.16
2023-10-29T04:47:07.707Z,1008.05
2023-10-29T04:48:07.823Z,1008.11
2023-10-29T04:49:07.719Z,1008.12
2023-10-29T04:50:07.720Z,1008.09
2023-10-29T04:51:07.733Z,1008.08
2023-10-29T04:52:07.709Z,1008.22
2023-10-29T04:53:07.711Z,1008.08
2023-10-29T04:54:07.748Z,1008.4
2023-10-29T04:55:07.718Z,1008.08
2023-10-29T04:56:07.715Z,1008.14
2023-10-29T04:57:07.710Z,1008.14
2023-10-29T04:58:07.703Z,1008.05
2023-10-29T04:59:07.712Z,1008.1
2023-10-29T05:00:07.733Z,1008.07
2023-10-29T05:01:07.718Z,1008.22
2023-10-29T05:02:07.714Z,1008.02
2023-10-29T05:03:07.879Z,1007.99
2023-10-29T05:04:07.739Z,1007.91
2023-10-29T05:05:07.719Z,1007.91
2023-10-29T05:06:07.773Z,1007.91
2023-10-29T05:07:07.710Z,1007.94
2023-10-29T05:08:07.812Z,1007.92
2023-10-29T05:09:07.719Z,1007.95
2023-10-29T05:10:07.717Z,1007.96
2023-10-29T05:11:07.699Z,1008.02
2023-10-29T05:12:07.720Z,1007.98
2023-10-29T05:13:07.708Z,1007.96
2023-10-29T05:14:07.717Z,1007.99
2023-10-29T05:15:07.748Z,1007.89
2023-10-29T05:16:07.737Z,1008.09
2023-10-29T05:17:07.718Z,1008.02
2023-10-29T05:18:07.770Z,1007.91
2023-10-29T05:19:07.716Z,1007.89
2023-10-29T05:20:07.707Z,1007.89
2023-10-29T05:21:07.748Z,1007.93
2023-10-29T05:22:07.756Z,1007.96
2023-10-29T05:23:07.715Z,1007.88
2023-10-29T05:24:07.706Z,1007.95
2023-10-29T05:25:07.712Z,1007.93
2023-10-29T05:26:07.715Z,1007.95
2023-10-29T05:27:07.714Z,1007.96
2023-10-29T05:28:07.710Z,1007.96
2023-10-29T05:29:07.715Z,1007.93
2023-10-29T05:30:07.733Z,1007.93
2023-10-29T05:31:07.736Z,1007.91
2023-10-29T05:32:07.714Z,1007.92
2023-10-29T05:33:07.768Z,1007.94
2023-10-29T05:34:07.708Z,1007.83
2023-10-29T05:35:07.877Z,1007.88
2023-10-29T05:36:07.768Z,1007.85
2023-10-29T05:37:07.718Z,1007.89
2023-10-29T05:38:07.710Z,1007.81
2023-10-29T05:39:07.733Z,1007.85
2023-10-29T05:40:07.727Z,1008.03
2023-10-29T05:41:07.712Z,1007.85
2023-10-29T05:42:07.706Z,1007.82
2023-10-29T05:43:07.721Z,1007.83
2023-10-29T05:44:07.723Z,1007.88
2023-10-29T05:45:07.870Z,1007.91
2023-10-29T05:46:07.786Z,1007.7
2023-10-29T05:47:07.714Z,1007.69
2023-10-29T05:48:07.819Z,1007.69
2023-10-29T05:49:07.723Z,1007.73
2023-10-29T05:50:07.728Z,1007.73
2023-10-29T05:51:07.761Z,1007.68
2023-10-29T05:52:07.732Z,1007.76
2023-10-29T05:53:07.741Z,1007.77
2023-10-29T05:54:07.719Z,1007.99
2023-10-29T05:55:07.739Z,1008.01
2023-10-29T05:56:07.744Z,1008
2023-10-29T05:57:07.715Z,1007.95
2023-10-29T05:58:07.722Z,1007.89
2023-10-29T05:59:07.716Z,1007.92
2023-10-29T06:00:07.762Z,1008.04
2023-10-29T06:01:07.745Z,1007.91
2023-10-29T06:02:07.709Z,1007.91
2023-10-29T06:03:07.864Z,1008.02
2023-10-29T06:04:07.870Z,1008.02
2023-10-29T06:05:07.771Z,1007.98
2023-10-29T06:06:07.791Z,1008.02
2023-10-29T06:07:07.707Z,1008.09
2023-10-29T06:08:07.710Z,1008.02
2023-10-29T06:09:20.954Z,1008
2023-10-29T06:10:07.714Z,1008.08
2023-10-29T06:11:07.714Z,1008.17
2023-10-29T06:12:07.756Z,1008.07
2023-10-29T06:13:07.712Z,1008.17
2023-10-29T06:14:07.716Z,1008.12
2023-10-29T06:15:07.749Z,1008.09
2023-10-29T06:16:07.707Z,1008.04
2023-10-29T06:17:23.370Z,1008.12
2023-10-29T06:18:07.897Z,1008.09
2023-10-29T06:19:07.727Z,1008.14
2023-10-29T06:20:07.723Z,1008.22
2023-10-29T06:21:07.755Z,1008.1
2023-10-29T06:22:07.710Z,1008.14
2023-10-29T06:23:07.706Z,1008.12
2023-10-29T06:24:07.784Z,1008.16
2023-10-29T06:25:07.715Z,1008.18
2023-10-29T06:26:07.713Z,1008.38
2023-10-29T06:27:07.738Z,1008.26
2023-10-29T06:28:07.714Z,1008.27
2023-10-29T06:29:07.720Z,1008.31
2023-10-29T06:30:07.814Z,1008.23
2023-10-29T06:31:07.780Z,1008.33
2023-10-29T06:32:07.716Z,1008.29
2023-10-29T06:33:07.777Z,1008.33
2023-10-29T06:34:07.748Z,1008.27
2023-10-29T06:35:07.726Z,1008.26
2023-10-29T06:36:07.753Z,1008.22
2023-10-29T06:37:07.714Z,1008.3
2023-10-29T06:38:07.705Z,1008.29
2023-10-29T06:39:07.730Z,1008.32
2023-10-29T06:40:07.835Z,1008.28
2023-10-29T06:41:07.715Z,1008.2
2023-10-29T06:42:07.740Z,1008.27
2023-10-29T06:43:07.725Z,1008.27
2023-10-29T06:44:07.713Z,1008.22
2023-10-29T06:45:07.746Z,1008.17
2023-10-29T06:46:07.729Z,1008.22
2023-10-29T06:47:07.711Z,1008.13
2023-10-29T06:48:07.758Z,1008.28
2023-10-29T06:49:07.701Z,1008.29
2023-10-29T06:50:07.712Z,1008.29
2023-10-29T06:51:07.764Z,1008.3
2023-10-29T06:52:07.702Z,1008.28
2023-10-29T06:53:07.700Z,1008.27
2023-10-29T06:54:07.744Z,1008.35
2023-10-29T06:55:07.729Z,1008.28
2023-10-29T06:56:07.790Z,1008.32
2023-10-29T06:57:07.741Z,1008.36
2023-10-29T06:58:07.714Z,1008.27
2023-10-29T06:59:07.718Z,1008.27
2023-10-29T07:00:07.770Z,1008.3
2023-10-29T07:01:07.712Z,1008.23
2023-10-29T07:02:07.830Z,1008.19
2023-10-29T07:03:07.848Z,1008.09
2023-10-29T07:04:07.858Z,1008.09
2023-10-29T07:05:07.764Z,1008.06
2023-10-29T07:06:07.818Z,1008.14
2023-10-29T07:07:07.706Z,1008.13
2023-10-29T07:08:07.710Z,1008
2023-10-29T07:09:07.733Z,1008.07
2023-10-29T07:10:07.709Z,1008.04
2023-10-29T07:11:07.714Z,1008.08
2023-10-29T07:12:07.734Z,1008.11
2023-10-29T07:13:07.715Z,1008.09
2023-10-29T07:14:07.708Z,1008.03
2023-10-29T07:15:07.745Z,1008.06
2023-10-29T07:16:07.846Z,1007.98
2023-10-29T07:17:07.719Z,1007.99
2023-10-29T07:18:07.800Z,1007.93
2023-10-29T07:19:07.744Z,1007.9
2023-10-29T07:20:07.726Z,1007.79
2023-10-29T07:21:07.757Z,1007.85
2023-10-29T07:22:07.710Z,1007.75
2023-10-29T07:23:07.726Z,1007.92
2023-10-29T07:24:07.798Z,1007.66
2023-10-29T07:25:07.751Z,1007.66
2023-10-29T07:26:07.714Z,1007.77
2023-10-29T07:27:07.762Z,1007.68
2023-10-29T07:28:07.707Z,1007.58
2023-10-29T07:29:07.729Z,1007.78
2023-10-29T07:30:07.745Z,1007.71
2023-10-29T07:31:07.723Z,1007.59
2023-10-29T07:32:07.719Z,1007.72
2023-10-29T07:33:07.772Z,1007.67
2023-10-29T07:34:07.728Z,1007.69
2023-10-29T07:35:07.725Z,1008.06
2023-10-29T07:36:07.842Z,1007.53
2023-10-29T07:37:09.319Z,1007.64
2023-10-29T07:38:07.715Z,1007.72
2023-10-29T07:39:07.743Z,1007.71
2023-10-29T07:40:07.702Z,1007.59
2023-10-29T07:41:07.712Z,1007.54
2023-10-29T07:42:07.760Z,1007.67
2023-10-29T07:43:07.709Z,1007.85
2023-10-29T07:44:07.711Z,1007.7
2023-10-29T07:45:07.747Z,1007.75
2023-10-29T07:46:07.754Z,1007.75
2023-10-29T07:47:07.726Z,1007.67
2023-10-29T07:48:07.796Z,1007.81
2023-10-29T07:49:07.747Z,1007.76
2023-10-29T07:50:07.716Z,1007.83
2023-10-29T07:51:07.731Z,1007.72
2023-10-29T07:52:07.730Z,1008.14
2023-10-29T07:53:07.722Z,1007.8
2023-10-29T07:54:07.741Z,1007.81
2023-10-29T07:55:07.722Z,1007.88
2023-10-29T07:56:07.722Z,1007.7
2023-10-29T07:57:07.731Z,1007.93
2023-10-29T07:58:07.722Z,1008.01
2023-10-29T07:59:07.711Z,1007.85
2023-10-29T08:00:07.798Z,1007.71
2023-10-29T08:01:07.763Z,1007.73
2023-10-29T08:02:07.727Z,1007.91
2023-10-29T08:03:07.833Z,1007.83
2023-10-29T08:04:07.746Z,1008.01
2023-10-29T08:05:07.720Z,1007.85
2023-10-29T08:06:07.763Z,1007.78
2023-10-29T08:07:07.728Z,1008.03
2023-10-29T08:08:07.719Z,1008
2023-10-29T08:09:07.818Z,1007.98
2023-10-29T08:10:07.720Z,1008.02
2023-10-29T08:11:07.820Z,1008.08
2023-10-29T08:12:07.755Z,1008.05
2023-10-29T08:13:07.705Z,1008.04
2023-10-29T08:14:07.721Z,1008.17
2023-10-29T08:15:07.768Z,1008.03
2023-10-29T08:16:07.776Z,1008.06
2023-10-29T08:17:07.726Z,1008.07
2023-10-29T08:18:07.798Z,1008.06
2023-10-29T08:19:07.727Z,1008.06
2023-10-29T08:20:07.779Z,1008.07
2023-10-29T08:21:07.794Z,1007.98
2023-10-29T08:22:07.765Z,1008.02
2023-10-29T08:23:07.716Z,1007.92
2023-10-29T08:24:07.732Z,1007.9
2023-10-29T08:25:07.718Z,1007.96
2023-10-29T08:26:07.720Z,1008.02
2023-10-29T08:27:07.794Z,1008.22
2023-10-29T08:28:07.747Z,1008.15
2023-10-29T08:29:07.711Z,1008.23
2023-10-29T08:30:07.766Z,1008.29
2023-10-29T08:31:07.759Z,1008.1
2023-10-29T08:32:07.716Z,1008.11
2023-10-29T08:33:07.831Z,1008.2
2023-10-29T08:34:07.711Z,1008.27
2023-10-29T08:35:07.716Z,1008.15
2023-10-29T08:36:07.752Z,1008.07
2023-10-29T08:37:07.713Z,1008.12
2023-10-29T08:38:07.713Z,1008.12
2023-10-29T08:39:07.735Z,1008.16
2023-10-29T08:40:07.697Z,1008.03
2023-10-29T08:41:07.720Z,1008.04
2023-10-29T08:42:07.752Z,1008.08
2023-10-29T08:43:07.720Z,1008.08
2023-10-29T08:44:07.720Z,1008.07
2023-10-29T08:45:07.851Z,1008.22
2023-10-29T08:46:07.790Z,1008.07
2023-10-29T08:47:07.723Z,1008.17
2023-10-29T08:48:07.809Z,1008.04
2023-10-29T08:49:07.710Z,1007.98
2023-10-29T08:50:07.706Z,1008.25
2023-10-29T08:51:07.810Z,1008.04
2023-10-29T08:52:07.710Z,1008.12
2023-10-29T08:53:07.730Z,1008.04
2023-10-29T08:54:07.733Z,1008.32
2023-10-29T08:55:07.717Z,1008.18
2023-10-29T08:56:07.752Z,1008.01
2023-10-29T08:57:07.757Z,1007.99
2023-10-29T08:58:07.720Z,1007.88
2023-10-29T08:59:07.711Z,1007.88
2023-10-29T09:00:07.762Z,1007.82
2023-10-29T09:01:07.711Z,1007.85
2023-10-29T09:02:07.715Z,1007.9
2023-10-29T09:03:07.828Z,1008.08
2023-10-29T09:04:07.928Z,1008.07
2023-10-29T09:05:07.739Z,1008.08
2023-10-29T09:06:07.783Z,1007.76
2023-10-29T09:07:07.716Z,1007.73
2023-10-29T09:08:07.706Z,1007.84
2023-10-29T09:09:07.754Z,1007.81
2023-10-29T09:10:07.722Z,1007.84
2023-10-29T09:11:07.716Z,1007.78
2023-10-29T09:12:07.766Z,1007.86
2023-10-29T09:13:07.712Z,1007.82
2023-10-29T09:14:07.714Z,1007.89
2023-10-29T09:15:07.772Z,1007.8
2023-10-29T09:16:07.793Z,1007.89
2023-10-29T09:17:07.794Z,1007.79
2023-10-29T09:18:07.975Z,1007.84
2023-10-29T09:19:07.726Z,1007.81
2023-10-29T09:20:07.721Z,1007.8
2023-10-29T09:21:07.753Z,1007.76
2023-10-29T09:22:07.720Z,1007.73
2023-10-29T09:23:07.703Z,1007.69
2023-10-29T09:24:07.775Z,1007.76
2023-10-29T09:25:07.738Z,1007.75
2023-10-29T09:26:07.715Z,1008.11
2023-10-29T09:27:07.751Z,1007.87
2023-10-29T09:28:07.720Z,1008.01
2023-10-29T09:29:07.721Z,1008.03
2023-10-29T09:30:07.747Z,1008.03
2023-10-29T09:31:07.712Z,1008.03
2023-10-29T09:32:07.713Z,1008.05
2023-10-29T09:33:07.736Z,1008.11
2023-10-29T09:34:07.728Z,1008.25
2023-10-29T09:35:07.754Z,1008.07
2023-10-29T09:36:07.779Z,1008.36
2023-10-29T09:37:07.716Z,1008.13
2023-10-29T09:38:07.708Z,1008.1
2023-10-29T09:39:07.764Z,1007.93
2023-10-29T09:40:07.703Z,1008.16
2023-10-29T09:41:07.722Z,1008.07
2023-10-29T09:42:07.764Z,1007.96
2023-10-29T09:43:07.712Z,1007.96
2023-10-29T09:44:07.723Z,1007.71
2023-10-29T09:45:07.762Z,1007.89
2023-10-29T09:46:07.743Z,1007.83
2023-10-29T09:47:07.714Z,1007.76
2023-10-29T09:48:08.375Z,1008.17
2023-10-29T09:49:07.714Z,1008.29
2023-10-29T09:50:07.712Z,1008.34
2023-10-29T09:51:07.838Z,1007.57
2023-10-29T09:52:07.708Z,1008.22
2023-10-29T09:53:07.720Z,1007.95
2023-10-29T09:54:07.825Z,1007.95
2023-10-29T09:55:07.757Z,1008.17
2023-10-29T09:56:07.714Z,1007.9
2023-10-29T09:57:07.780Z,1007.91
2023-10-29T09:58:07.733Z,1007.73
2023-10-29T09:59:07.715Z,1007.89
2023-10-29T10:00:07.734Z,1007.81
2023-10-29T10:01:07.726Z,1007.83
2023-10-29T10:02:07.733Z,1007.84
2023-10-29T10:03:07.896Z,1007.89
2023-10-29T10:04:07.866Z,1008.23
2023-10-29T10:05:07.770Z,1008.04
2023-10-29T10:06:07.954Z,1008.05
2023-10-29T10:07:07.713Z,1007.86
2023-10-29T10:08:07.719Z,1007.8
2023-10-29T10:09:07.743Z,1007.93
2023-10-29T10:10:07.702Z,1007.82
2023-10-29T10:11:07.715Z,1007.83
2023-10-29T10:12:07.721Z,1008.09
2023-10-29T10:13:07.726Z,1007.86
2023-10-29T10:14:07.717Z,1007.83
2023-10-29T10:15:07.802Z,1007.98
2023-10-29T10:16:07.748Z,1008.04
2023-10-29T10:17:07.711Z,1008.03
2023-10-29T10:18:07.830Z,1007.9
2023-10-29T10:19:07.717Z,1008.05
2023-10-29T10:20:07.713Z,1008.15
2023-10-29T10:21:07.783Z,1007.98
2023-10-29T10:22:07.706Z,1008.02
2023-10-29T10:23:07.714Z,1007.85
2023-10-29T10:24:07.781Z,1007.85
2023-10-29T10:25:07.710Z,1007.91
2023-10-29T10:26:07.714Z,1007.99
2023-10-29T10:27:07.722Z,1008.08
2023-10-29T10:28:07.749Z,1007.96
2023-10-29T10:29:07.715Z,1008.02
2023-10-29T10:30:07.738Z,1007.86
2023-10-29T10:31:07.717Z,1007.84
2023-10-29T10:32:07.710Z,1007.65
2023-10-29T10:33:07.837Z,1007.72
2023-10-29T10:34:07.724Z,1007.7
2023-10-29T10:35:07.713Z,1007.57
2023-10-29T10:36:07.772Z,1007.68
2023-10-29T10:37:07.741Z,1007.77
2023-10-29T10:38:07.726Z,1007.5
2023-10-29T10:39:07.754Z,1007.71
2023-10-29T10:40:07.727Z,1007.69
2023-10-29T10:41:07.705Z,1007.69
2023-10-29T10:42:07.774Z,1007.49
2023-10-29T10:43:07.715Z,1007.6
2023-10-29T10:44:07.714Z,1007.78
2023-10-29T10:45:07.779Z,1007.6
2023-10-29T10:46:07.746Z,1007.79
2023-10-29T10:47:07.719Z,1007.59
2023-10-29T10:48:07.963Z,1007.54
2023-10-29T10:49:07.719Z,1007.78
2023-10-29T10:50:07.716Z,1007.57
2023-10-29T10:51:07.748Z,1007.54
2023-10-29T10:52:07.727Z,1007.54
2023-10-29T10:53:07.705Z,1007.52
2023-10-29T10:54:07.781Z,1007.55
2023-10-29T10:55:14.523Z,1007.58
2023-10-29T10:56:07.713Z,1007.54
2023-10-29T10:57:07.741Z,1007.66
2023-10-29T10:58:07.711Z,1007.53
2023-10-29T10:59:07.700Z,1007.57
2023-10-29T11:00:07.729Z,1007.57
2023-10-29T11:01:13.289Z,1007.47
2023-10-29T11:02:12.133Z,1007.65
2023-10-29T11:03:25.569Z,1007.47
2023-10-29T11:04:12.319Z,1007.55
2023-10-29T11:05:12.178Z,1007.55
2023-10-29T11:06:12.176Z,1007.6
2023-10-29T11:07:12.099Z,1007.56
2023-10-29T11:08:12.109Z,1007.5
2023-10-29T11:09:12.107Z,1007.7
2023-10-29T11:10:12.108Z,1007.75
2023-10-29T11:11:12.093Z,1007.87
2023-10-29T11:12:13.959Z,1007.66
2023-10-29T11:13:12.089Z,1007.76
2023-10-29T11:14:12.104Z,1007.55
2023-10-29T11:15:12.160Z,1007.53
2023-10-29T11:16:12.149Z,1007.7
2023-10-29T11:17:12.134Z,1007.91
2023-10-29T11:18:12.223Z,1007.53
2023-10-29T11:19:12.087Z,1007.6
2023-10-29T11:20:12.090Z,1007.45
2023-10-29T11:21:12.150Z,1007.58
2023-10-29T11:22:12.097Z,1007.67
2023-10-29T11:23:12.105Z,1007.66
2023-10-29T11:24:12.122Z,1007.65
2023-10-29T11:25:12.096Z,1007.81
2023-10-29T11:26:12.094Z,1007.91
2023-10-29T11:27:12.169Z,1007.69
2023-10-29T11:28:12.097Z,1007.88
2023-10-29T11:29:12.100Z,1007.67
2023-10-29T11:30:12.122Z,1007.85
2023-10-29T11:31:12.088Z,1008.11
2023-10-29T11:32:12.113Z,1007.87
2023-10-29T11:33:12.147Z,1007.64
2023-10-29T11:34:12.103Z,1007.79
2023-10-29T11:35:12.095Z,1007.69
2023-10-29T11:36:12.250Z,1007.93
2023-10-29T11:37:12.113Z,1007.79
2023-10-29T11:38:12.087Z,1008.04
2023-10-29T11:39:12.148Z,1007.79
2023-10-29T11:40:12.089Z,1007.79
2023-10-29T11:41:12.097Z,1007.81
2023-10-29T11:42:12.121Z,1007.89
2023-10-29T11:43:12.098Z,1008.08
2023-10-29T11:44:12.100Z,1008.01
2023-10-29T11:45:12.126Z,1007.79
2023-10-29T11:46:12.107Z,1008.3
2023-10-29T11:47:12.098Z,1007.88
2023-10-29T11:48:12.132Z,1007.94
2023-10-29T11:49:12.093Z,1008.01
2023-10-29T11:50:12.104Z,1007.92
2023-10-29T11:51:12.211Z,1008.35
2023-10-29T11:52:12.108Z,1007.99
2023-10-29T11:53:12.083Z,1007.91
2023-10-29T11:54:12.145Z,1007.82
2023-10-29T11:55:12.123Z,1007.87
2023-10-29T11:56:12.079Z,1007.91
2023-10-29T11:57:12.136Z,1007.82
2023-10-29T11:58:12.089Z,1007.8
2023-10-29T11:59:12.089Z,1007.71
2023-10-29T12:00:12.092Z,1007.89
2023-10-29T12:01:12.110Z,1007.8
2023-10-29T12:02:12.098Z,1007.7
2023-10-29T12:03:12.227Z,1007.81
2023-10-29T12:04:12.224Z,1007.59
2023-10-29T12:05:12.168Z,1007.71
2023-10-29T12:06:12.099Z,1007.86
2023-10-29T12:07:12.109Z,1007.87
2023-10-29T12:08:12.089Z,1007.81